Arcata/Eureka (ACV/KACV)

Map

Destinations

Information

Location
Arcata/Eureka, CA
Local Time
19:25 / 7:25 pm
GMT Time
02:25 / 2:25 am
Gates
Unassigned
No FAA reported delays
METAR KACV 280153Z AUTO 34009KT 10SM FEW120 11/05 A3039 RMK AO2 SLP296 T01060050
TAF KACV 272343Z 2800/2824 31010KT P6SM FEW025 SCT035 SCT100 FM280300 03003KT P6SM FEW035 SCT120 BKN250 FM281000 00000KT 6SM BR SCT008 BKN250 FM281500 06005KT P6SM SCT120 BKN250 FM281800 22005KT P6SM SCT050 BKN120 BKN250
  • No charts available